Estación Meteorológica Peña el Pijo (Robertgarden) [ 12/16/19 00:44:27 CET ]

Fecha Hora Presion(HPa) Temp (°C) Humedad % Rocio (°C) Viento ( m/s) Direccion Lluvia 1Hora(mm) Lluvia 24H(mm) LLuvia Total(mm)
2019-Feb-13 01:01:47 1018.500 0.5 82 -2.2         183.37
2019-Feb-13 02:04:56 1018.300 0.0 83 -2.5         183.37
2019-Feb-13 03:01:48 1018.300 -0.6 84 -3.0         183.37
2019-Feb-13 04:01:43 1017.600 -0.4 84 -2.8         183.37
2019-Feb-13 05:01:47 1017.400 -0.5 85 -2.7         183.37
2019-Feb-13 06:01:44 1017.000 -0.6 85 -2.8         183.37
2019-Feb-13 07:01:43 1017.100 -0.7 86 -2.7         183.37
2019-Feb-13 08:01:25 1017.400 -1.4 85 -3.6         183.37
2019-Feb-13 09:01:29 1017.700 -1.1 85 -3.4         183.37
2019-Feb-13 10:01:37 1017.700 4.7 84 2.2         183.37
2019-Feb-13 11:01:25 1017.500 11.4 54 2.7         183.37
2019-Feb-13 12:01:33 1017.500 14.8 31 -2.2         183.37
2019-Feb-13 13:01:28 1017.200 14.4 24 -6.1         183.37
2019-Feb-13 14:01:37 1016.500 15.8 25 -4.4 2.0 ENE     183.37
2019-Feb-13 15:01:53 1016.100 15.9 19 -7.9         183.37
2019-Feb-13 16:01:55 1016.200 16.7 20 -6.3         183.37
2019-Feb-13 17:01:59 1016.400 14.8 27 -4.2         183.37
2019-Feb-13 18:02:00 1016.500 11.8 37 -2.5 2.1 NNE     183.37
2019-Feb-13 19:01:47 1016.900 8.9 51 -0.7         183.37
2019-Feb-13 20:02:09 1017.500 6.9 59 -0.6         183.37
2019-Feb-13 21:01:52 1017.900 3.6 60 -3.5         183.37
2019-Feb-13 22:01:49 1018.400 1.7 67 -3.8         183.37
2019-Feb-13 23:01:42 1018.800 0.9 71 -3.8         183.37

Temperatura Máxima:16°    Temperatura Mínima:-1°
Presión Máxima:1018.800 Hpa    Presión Mínima:1016.100 Hpa


Volver